createdAt,value
2022-08-25T00:02:04.721Z,21.23
2022-08-25T00:04:35.229Z,21.21
2022-08-25T00:07:07.156Z,21.17
2022-08-25T00:09:35.709Z,21.16
2022-08-25T00:12:05.883Z,21.14
2022-08-25T00:14:36.970Z,21.10
2022-08-25T00:17:06.836Z,21.04
2022-08-25T00:19:38.475Z,21.00
2022-08-25T00:22:07.860Z,20.98
2022-08-25T00:24:36.189Z,20.97
2022-08-25T00:27:04.603Z,20.96
2022-08-25T00:29:33.333Z,20.94
2022-08-25T00:32:03.563Z,20.89
2022-08-25T00:34:39.506Z,20.81
2022-08-25T00:37:09.649Z,20.76
2022-08-25T00:39:40.095Z,20.75
2022-08-25T00:42:11.794Z,20.75
2022-08-25T00:44:45.118Z,20.75
2022-08-25T00:47:13.373Z,20.69
2022-08-25T00:49:55.358Z,20.64
2022-08-25T00:52:23.518Z,20.66
2022-08-25T00:55:03.140Z,20.66
2022-08-25T00:57:41.472Z,20.67
2022-08-25T01:00:26.241Z,20.65
2022-08-25T01:02:57.567Z,20.65
2022-08-25T01:05:27.086Z,20.64
2022-08-25T01:07:58.722Z,20.63
2022-08-25T01:10:29.127Z,20.63
2022-08-25T01:13:02.767Z,20.62
2022-08-25T01:15:32.730Z,20.63
2022-08-25T01:18:01.149Z,20.65
2022-08-25T01:20:32.636Z,20.66
2022-08-25T01:23:03.006Z,20.68
2022-08-25T01:25:49.921Z,20.66
2022-08-25T01:28:18.723Z,20.61
2022-08-25T01:30:46.986Z,20.54
2022-08-25T01:33:18.361Z,20.45
2022-08-25T01:35:47.260Z,20.38
2022-08-25T01:38:17.875Z,20.38
2022-08-25T01:40:45.953Z,20.37
2022-08-25T01:43:18.451Z,20.36
2022-08-25T01:45:48.216Z,20.37
2022-08-25T01:48:17.127Z,20.40
2022-08-25T01:50:45.312Z,20.46
2022-08-25T01:53:29.561Z,20.43
2022-08-25T01:56:15.764Z,20.40
2022-08-25T01:58:46.988Z,20.41
2022-08-25T02:01:18.963Z,20.38
2022-08-25T02:03:53.101Z,20.36
2022-08-25T02:06:28.808Z,20.37
2022-08-25T02:09:04.652Z,20.38
2022-08-25T02:11:37.147Z,20.38
2022-08-25T02:14:05.911Z,20.39
2022-08-25T02:16:37.090Z,20.38
2022-08-25T02:19:09.543Z,20.34
2022-08-25T02:21:38.284Z,20.33
2022-08-25T02:24:07.432Z,20.35
2022-08-25T02:26:37.262Z,20.36
2022-08-25T02:29:07.785Z,20.31
2022-08-25T02:31:39.319Z,20.25
2022-08-25T02:34:08.900Z,20.18
2022-08-25T02:36:38.491Z,20.09
2022-08-25T02:39:08.970Z,20.07
2022-08-25T02:41:38.929Z,20.03
2022-08-25T02:44:08.054Z,19.99
2022-08-25T02:46:39.404Z,20.00
2022-08-25T02:49:08.003Z,20.05
2022-08-25T02:51:36.627Z,20.12
2022-08-25T02:54:05.536Z,20.13
2022-08-25T02:56:33.954Z,20.13
2022-08-25T02:59:02.939Z,20.16
2022-08-25T03:01:32.730Z,20.17
2022-08-25T03:04:01.960Z,20.15
2022-08-25T03:06:30.620Z,20.11
2022-08-25T03:08:59.251Z,20.08
2022-08-25T03:11:28.448Z,20.07
2022-08-25T03:13:56.697Z,20.04
2022-08-25T03:16:28.165Z,20.01
2022-08-25T03:18:56.871Z,19.99
2022-08-25T03:21:26.919Z,19.96
2022-08-25T03:23:56.353Z,19.93
2022-08-25T03:26:43.130Z,19.95
2022-08-25T03:29:11.262Z,19.97
2022-08-25T03:31:39.449Z,19.97
2022-08-25T03:34:07.541Z,19.93
2022-08-25T03:36:35.756Z,19.88
2022-08-25T03:39:04.542Z,19.85
2022-08-25T03:41:33.651Z,19.87
2022-08-25T03:44:04.093Z,19.94
2022-08-25T03:46:35.479Z,19.98
2022-08-25T03:49:04.917Z,20.02
2022-08-25T03:51:37.301Z,20.07
2022-08-25T03:54:05.431Z,20.15
2022-08-25T03:56:34.095Z,20.16
2022-08-25T03:59:02.603Z,20.11
2022-08-25T04:01:30.657Z,20.05
2022-08-25T04:03:58.926Z,20.01
2022-08-25T04:06:27.110Z,19.98
2022-08-25T04:08:58.389Z,19.99
2022-08-25T04:11:27.382Z,20.02
2022-08-25T04:13:59.154Z,20.05
2022-08-25T04:16:31.595Z,20.12
2022-08-25T04:19:02.358Z,20.19
2022-08-25T04:21:32.012Z,20.22
2022-08-25T04:23:59.949Z,20.28
2022-08-25T04:26:34.683Z,20.35
2022-08-25T04:29:07.160Z,20.40
2022-08-25T04:31:39.512Z,20.47
2022-08-25T04:34:24.734Z,20.51
2022-08-25T04:36:56.072Z,20.57
2022-08-25T04:39:24.012Z,20.60
2022-08-25T04:41:52.119Z,20.60
2022-08-25T04:44:21.621Z,20.66
2022-08-25T04:46:50.042Z,20.73
2022-08-25T04:49:18.240Z,20.82
2022-08-25T04:51:47.160Z,20.91
2022-08-25T04:54:21.822Z,20.95
2022-08-25T04:56:54.500Z,21.02
2022-08-25T04:59:29.490Z,21.10
2022-08-25T05:02:04.506Z,21.13
2022-08-25T05:04:36.424Z,21.13
2022-08-25T05:07:04.938Z,21.12
2022-08-25T05:09:33.558Z,21.08
2022-08-25T05:12:10.534Z,21.07
2022-08-25T05:14:54.710Z,21.10
2022-08-25T05:17:23.993Z,21.11
2022-08-25T05:19:52.184Z,21.16
2022-08-25T05:22:20.306Z,21.24
2022-08-25T05:24:48.545Z,21.29
2022-08-25T05:27:17.213Z,21.32
2022-08-25T05:29:45.280Z,21.30
2022-08-25T05:32:13.339Z,21.29
2022-08-25T05:34:41.937Z,21.32
2022-08-25T05:37:12.146Z,21.39
2022-08-25T05:39:40.548Z,21.49
2022-08-25T05:42:08.488Z,21.51
2022-08-25T05:44:38.516Z,21.54
2022-08-25T05:47:07.744Z,21.57
2022-08-25T05:49:35.890Z,21.54
2022-08-25T05:52:04.360Z,21.57
2022-08-25T05:54:33.700Z,21.62
2022-08-25T05:57:01.681Z,21.73
2022-08-25T05:59:30.443Z,21.84
2022-08-25T06:02:17.586Z,21.84
2022-08-25T06:04:46.943Z,21.76
2022-08-25T06:07:14.939Z,21.72
2022-08-25T06:09:46.546Z,21.74
2022-08-25T06:12:15.151Z,21.84
2022-08-25T06:14:44.590Z,21.94
2022-08-25T06:17:14.645Z,22.05
2022-08-25T06:19:46.238Z,22.11
2022-08-25T06:22:14.253Z,22.05
2022-08-25T06:24:42.813Z,22.08
2022-08-25T06:27:13.322Z,22.17
2022-08-25T06:29:42.297Z,22.27
2022-08-25T06:32:10.605Z,22.28
2022-08-25T06:34:41.749Z,22.19
2022-08-25T06:37:09.811Z,22.11
2022-08-25T06:39:37.975Z,22.15
2022-08-25T06:42:06.196Z,22.25
2022-08-25T06:44:35.147Z,22.32
2022-08-25T06:47:03.260Z,22.40
2022-08-25T06:49:36.002Z,22.52
2022-08-25T06:52:04.789Z,22.62
2022-08-25T06:54:33.264Z,22.68
2022-08-25T06:57:01.741Z,22.66
2022-08-25T06:59:32.207Z,22.58
2022-08-25T07:02:03.299Z,22.52
2022-08-25T07:04:33.148Z,22.44
2022-08-25T07:07:04.860Z,22.37
2022-08-25T07:09:37.411Z,22.35
2022-08-25T07:12:10.001Z,22.37
2022-08-25T07:14:38.600Z,22.39
2022-08-25T07:17:12.619Z,22.45
2022-08-25T07:19:43.058Z,22.49
2022-08-25T07:22:12.044Z,22.42
2022-08-25T07:24:40.094Z,22.40
2022-08-25T07:27:08.185Z,22.42
2022-08-25T07:29:42.343Z,22.38
2022-08-25T07:32:10.983Z,22.41
2022-08-25T07:34:59.209Z,22.44
2022-08-25T07:40:38.373Z,22.51
2022-08-25T07:43:13.170Z,22.52
2022-08-25T07:45:49.550Z,22.52
2022-08-25T07:48:20.097Z,22.57
2022-08-25T07:50:49.505Z,22.53
2022-08-25T07:53:18.086Z,22.46
2022-08-25T07:55:47.377Z,22.46
2022-08-25T07:58:15.757Z,22.48
2022-08-25T08:00:48.058Z,22.51
2022-08-25T08:03:35.158Z,22.59
2022-08-25T08:06:09.691Z,22.70
2022-08-25T08:08:44.110Z,22.76
2022-08-25T08:11:21.493Z,22.83
2022-08-25T08:13:55.014Z,22.92
2022-08-25T08:16:30.386Z,23.06
2022-08-25T08:18:59.651Z,23.21
2022-08-25T08:21:32.648Z,23.34
2022-08-25T08:24:05.038Z,23.44
2022-08-25T08:26:57.686Z,23.52
2022-08-25T08:29:28.230Z,23.58
2022-08-25T08:31:56.860Z,23.61
2022-08-25T08:34:25.189Z,23.58
2022-08-25T08:36:57.824Z,23.49
2022-08-25T08:39:27.684Z,23.39
2022-08-25T08:42:19.926Z,23.37
2022-08-25T08:45:46.407Z,23.39
2022-08-25T08:49:19.688Z,23.43
2022-08-25T08:52:09.398Z,23.51
2022-08-25T08:54:41.159Z,23.56
2022-08-25T09:03:09.348Z,23.79
2022-08-25T09:05:50.420Z,23.85
2022-08-25T09:08:20.498Z,23.94
2022-08-25T09:11:01.575Z,24.07
2022-08-25T09:13:36.938Z,24.25
2022-08-25T09:16:34.945Z,24.41
2022-08-25T09:19:23.383Z,24.58
2022-08-25T09:22:33.668Z,24.72
2022-08-25T09:25:53.041Z,24.85
2022-08-25T09:28:39.810Z,25.05
2022-08-25T09:31:29.849Z,25.33
2022-08-25T09:34:01.108Z,25.61
2022-08-25T09:36:35.562Z,26.00
2022-08-25T09:39:06.841Z,26.36
2022-08-25T09:41:51.133Z,26.70
2022-08-25T09:44:26.229Z,27.13
2022-08-25T09:47:17.930Z,27.52
2022-08-25T09:50:00.259Z,27.93
2022-08-25T09:52:28.796Z,28.24
2022-08-25T09:54:59.723Z,28.49
2022-08-25T09:57:44.439Z,28.76
2022-08-25T10:00:21.558Z,29.09
2022-08-25T10:03:07.870Z,29.37
2022-08-25T10:05:41.470Z,29.55
2022-08-25T10:08:24.813Z,29.61
2022-08-25T10:10:57.574Z,29.70
2022-08-25T10:13:36.682Z,29.60
2022-08-25T10:16:34.574Z,29.52
2022-08-25T10:19:28.699Z,29.48
2022-08-25T10:22:10.902Z,29.44
2022-08-25T10:24:43.890Z,29.40
2022-08-25T10:27:30.677Z,29.53
2022-08-25T10:30:20.258Z,29.77
2022-08-25T10:33:33.118Z,29.95
2022-08-25T10:36:10.700Z,30.01
2022-08-25T10:38:58.822Z,30.23
2022-08-25T10:41:38.227Z,30.48
2022-08-25T10:44:36.866Z,30.64
2022-08-25T10:47:23.360Z,30.78
2022-08-25T10:49:56.240Z,30.82
2022-08-25T10:52:48.834Z,30.93
2022-08-25T10:55:20.859Z,30.91
2022-08-25T10:57:52.645Z,30.70
2022-08-25T11:00:23.651Z,30.85
2022-08-25T11:03:08.435Z,30.84
2022-08-25T11:06:05.747Z,30.76
2022-08-25T11:08:58.700Z,30.88
2022-08-25T11:12:00.021Z,30.96
2022-08-25T11:14:34.409Z,30.98
2022-08-25T11:17:10.240Z,30.79
2022-08-25T11:19:42.169Z,30.53
2022-08-25T11:22:22.477Z,30.34
2022-08-25T11:24:59.763Z,30.32
2022-08-25T11:27:59.921Z,30.33
2022-08-25T11:30:28.989Z,30.58
2022-08-25T11:32:57.135Z,30.75
2022-08-25T11:35:40.899Z,30.92
2022-08-25T11:38:37.850Z,30.86
2022-08-25T11:41:21.717Z,30.79
2022-08-25T11:44:10.336Z,30.82
2022-08-25T11:46:53.367Z,30.70
2022-08-25T11:49:53.947Z,30.72
2022-08-25T11:52:34.693Z,30.71
2022-08-25T11:55:13.956Z,30.39
2022-08-25T11:57:45.122Z,30.27
2022-08-25T12:04:47.139Z,29.97
2022-08-25T12:07:20.499Z,30.14
2022-08-25T12:10:09.171Z,30.17
2022-08-25T12:12:38.825Z,30.24
2022-08-25T12:15:21.166Z,30.35
2022-08-25T12:18:16.759Z,30.67
2022-08-25T12:20:52.723Z,30.75
2022-08-25T12:23:30.359Z,31.01
2022-08-25T12:26:06.453Z,31.29
2022-08-25T12:28:41.950Z,31.30
2022-08-25T12:31:30.472Z,31.33
2022-08-25T12:34:19.091Z,31.40
2022-08-25T12:36:56.318Z,31.64
2022-08-25T12:39:32.065Z,31.86
2022-08-25T12:42:06.767Z,32.04
2022-08-25T12:44:44.110Z,32.25
2022-08-25T12:47:27.318Z,32.29
2022-08-25T12:50:33.625Z,32.38
2022-08-25T12:53:16.082Z,32.50
2022-08-25T12:55:50.178Z,32.24
2022-08-25T12:58:18.212Z,31.97
2022-08-25T13:01:35.498Z,31.81
2022-08-25T13:04:19.727Z,31.83
2022-08-25T13:06:59.933Z,32.19
2022-08-25T13:09:50.810Z,32.59
2022-08-25T13:12:24.458Z,32.95
2022-08-25T13:14:54.775Z,33.14
2022-08-25T13:17:34.004Z,33.29
2022-08-25T13:20:23.542Z,33.45
2022-08-25T13:22:57.389Z,33.26
2022-08-25T13:25:37.072Z,32.92
2022-08-25T13:28:10.949Z,32.55
2022-08-25T13:30:40.042Z,32.50
2022-08-25T13:33:23.984Z,32.31
2022-08-25T13:36:14.313Z,32.03
2022-08-25T13:38:45.703Z,32.18
2022-08-25T13:41:23.693Z,32.59
2022-08-25T13:44:00.861Z,33.05
2022-08-25T13:46:30.789Z,33.54
2022-08-25T13:49:05.333Z,33.49
2022-08-25T13:51:34.971Z,33.27
2022-08-25T13:54:07.159Z,33.04
2022-08-25T13:56:40.947Z,33.21
2022-08-25T13:59:25.814Z,32.92
2022-08-25T14:01:55.342Z,32.62
2022-08-25T14:04:51.094Z,32.99
2022-08-25T14:07:25.553Z,33.82
2022-08-25T14:10:01.634Z,34.47
2022-08-25T14:12:47.743Z,35.13
2022-08-25T14:15:17.466Z,35.73
2022-08-25T14:18:00.640Z,35.95
2022-08-25T14:20:31.020Z,36.41
2022-08-25T14:23:12.929Z,36.70
2022-08-25T14:25:49.042Z,36.69
2022-08-25T14:28:21.769Z,36.40
2022-08-25T14:30:53.931Z,36.93
2022-08-25T14:33:25.332Z,36.51
2022-08-25T14:35:55.242Z,36.31
2022-08-25T14:38:23.360Z,36.20
2022-08-25T14:40:52.483Z,36.52
2022-08-25T14:43:24.006Z,36.18
2022-08-25T14:46:02.603Z,35.61
2022-08-25T14:48:37.238Z,35.06
2022-08-25T14:51:05.571Z,35.06
2022-08-25T14:53:33.967Z,34.86
2022-08-25T14:56:08.630Z,35.68
2022-08-25T14:58:48.541Z,36.47
2022-08-25T15:01:29.018Z,37.17
2022-08-25T15:04:05.776Z,37.42
2022-08-25T15:06:36.620Z,36.42
2022-08-25T15:09:11.739Z,35.67
2022-08-25T15:11:45.434Z,35.41
2022-08-25T15:14:18.958Z,36.42
2022-08-25T15:16:57.898Z,37.36
2022-08-25T15:19:27.079Z,38.22
2022-08-25T15:21:57.779Z,38.81
2022-08-25T15:24:28.324Z,38.48
2022-08-25T15:26:58.747Z,38.57
2022-08-25T15:29:30.288Z,39.14
2022-08-25T15:32:00.419Z,39.61
2022-08-25T15:34:29.695Z,39.84
2022-08-25T15:36:58.957Z,40.23
2022-08-25T15:39:27.910Z,40.55
2022-08-25T15:41:57.136Z,40.91
2022-08-25T15:44:29.524Z,41.18
2022-08-25T15:46:59.228Z,41.39
2022-08-25T15:49:29.936Z,41.58
2022-08-25T15:52:00.008Z,41.49
2022-08-25T15:54:29.024Z,41.52
2022-08-25T15:56:59.916Z,41.77
2022-08-25T15:59:28.727Z,42.10
2022-08-25T16:01:57.432Z,42.23
2022-08-25T16:04:27.589Z,42.06
2022-08-25T16:06:56.109Z,42.15
2022-08-25T16:09:24.351Z,42.28
2022-08-25T16:11:55.626Z,42.28
2022-08-25T16:14:27.722Z,42.17
2022-08-25T16:16:58.103Z,42.14
2022-08-25T16:19:30.054Z,42.10
2022-08-25T16:21:59.235Z,42.01
2022-08-25T16:24:28.394Z,42.01
2022-08-25T16:27:11.383Z,41.93
2022-08-25T16:29:42.964Z,41.72
2022-08-25T16:32:13.374Z,41.54
2022-08-25T16:34:42.014Z,41.30
2022-08-25T16:37:11.084Z,41.06
2022-08-25T16:39:44.090Z,40.87
2022-08-25T16:42:12.894Z,40.59
2022-08-25T16:44:41.850Z,40.15
2022-08-25T16:47:09.892Z,39.68
2022-08-25T16:49:43.009Z,39.13
2022-08-25T16:52:30.243Z,38.65
2022-08-25T16:55:14.407Z,38.22
2022-08-25T16:57:48.787Z,37.94
2022-08-25T17:00:21.932Z,37.67
2022-08-25T17:02:54.289Z,37.21
2022-08-25T17:05:22.222Z,36.49
2022-08-25T17:08:09.366Z,35.78
2022-08-25T17:10:41.407Z,35.05
2022-08-25T17:13:11.809Z,34.46
2022-08-25T17:15:47.005Z,33.85
2022-08-25T17:18:15.540Z,33.30
2022-08-25T17:20:45.299Z,32.77
2022-08-25T17:23:13.372Z,32.27
2022-08-25T17:25:42.953Z,31.85
2022-08-25T17:28:12.808Z,31.46
2022-08-25T17:30:41.668Z,31.05
2022-08-25T17:33:09.628Z,30.63
2022-08-25T17:35:42.316Z,30.25
2022-08-25T17:38:11.202Z,29.94
2022-08-25T17:40:39.811Z,29.66
2022-08-25T17:43:09.125Z,29.40
2022-08-25T17:45:39.300Z,29.17
2022-08-25T17:48:09.189Z,28.91
2022-08-25T17:50:39.374Z,28.65
2022-08-25T17:53:13.543Z,28.40
2022-08-25T17:55:48.710Z,28.18
2022-08-25T17:58:18.886Z,27.96
2022-08-25T18:00:49.544Z,27.75
2022-08-25T18:03:27.240Z,27.55
2022-08-25T18:05:58.773Z,27.33
2022-08-25T18:08:32.248Z,27.13
2022-08-25T18:11:05.050Z,26.95
2022-08-25T18:13:33.265Z,26.81
2022-08-25T18:16:01.254Z,26.67
2022-08-25T18:18:31.819Z,26.54
2022-08-25T18:20:59.812Z,26.42
2022-08-25T18:23:27.996Z,26.32
2022-08-25T18:26:01.074Z,26.21
2022-08-25T18:28:30.179Z,26.11
2022-08-25T18:30:58.138Z,25.95
2022-08-25T18:33:26.361Z,25.86
2022-08-25T18:35:58.262Z,25.78
2022-08-25T18:38:52.645Z,25.71
2022-08-25T18:41:27.770Z,25.63
2022-08-25T18:43:57.978Z,25.58
2022-08-25T18:46:25.990Z,25.53
2022-08-25T18:48:55.769Z,25.47
2022-08-25T18:51:24.857Z,25.38
2022-08-25T18:53:54.572Z,25.31
2022-08-25T18:56:27.394Z,25.25
2022-08-25T18:58:55.791Z,25.18
2022-08-25T19:01:23.965Z,25.05
2022-08-25T19:03:52.367Z,24.94
2022-08-25T19:06:20.974Z,24.86
2022-08-25T19:08:49.152Z,24.85
2022-08-25T19:11:22.241Z,24.84
2022-08-25T19:13:52.035Z,24.83
2022-08-25T19:16:40.894Z,24.82
2022-08-25T19:19:14.919Z,24.81
2022-08-25T19:21:43.464Z,24.81
2022-08-25T19:24:13.523Z,24.78
2022-08-25T19:26:42.962Z,24.80
2022-08-25T19:29:17.570Z,24.81
2022-08-25T19:31:49.157Z,24.82
2022-08-25T19:34:25.372Z,24.83
2022-08-25T19:36:58.074Z,24.82
2022-08-25T19:39:27.430Z,24.82
2022-08-25T19:41:56.898Z,24.80
2022-08-25T19:44:27.129Z,24.76
2022-08-25T19:46:58.305Z,24.76
2022-08-25T19:49:31.484Z,24.76
2022-08-25T19:52:06.958Z,24.76
2022-08-25T19:54:45.767Z,24.74
2022-08-25T19:57:28.148Z,24.71
2022-08-25T20:00:17.781Z,24.68
2022-08-25T20:02:46.537Z,24.64
2022-08-25T20:05:15.820Z,24.61
2022-08-25T20:07:52.670Z,24.59
2022-08-25T20:10:22.105Z,24.57
2022-08-25T20:12:50.070Z,24.53
2022-08-25T20:15:18.580Z,24.49
2022-08-25T20:17:46.635Z,24.47
2022-08-25T20:20:19.011Z,24.43
2022-08-25T20:22:48.409Z,24.39
2022-08-25T20:25:26.634Z,24.36
2022-08-25T20:28:04.340Z,24.34
2022-08-25T20:30:32.703Z,24.31
2022-08-25T20:33:01.251Z,24.29
2022-08-25T20:35:29.407Z,24.25
2022-08-25T20:37:58.533Z,24.23
2022-08-25T20:40:28.130Z,24.18
2022-08-25T20:43:01.969Z,24.16
2022-08-25T20:45:31.146Z,24.10
2022-08-25T20:48:00.256Z,23.99
2022-08-25T20:50:28.275Z,23.93
2022-08-25T20:52:58.683Z,23.90
2022-08-25T20:55:27.982Z,23.86
2022-08-25T20:57:56.592Z,23.82
2022-08-25T21:00:25.927Z,23.74
2022-08-25T21:02:55.071Z,23.67
2022-08-25T21:05:23.181Z,23.65
2022-08-25T21:07:51.238Z,23.63
2022-08-25T21:10:19.225Z,23.60
2022-08-25T21:12:49.091Z,23.57
2022-08-25T21:15:21.299Z,23.53
2022-08-25T21:17:50.959Z,23.52
2022-08-25T21:20:18.909Z,23.51
2022-08-25T21:22:46.972Z,23.50
2022-08-25T21:25:15.143Z,23.48
2022-08-25T21:27:43.882Z,23.46
2022-08-25T21:30:12.800Z,23.43
2022-08-25T21:32:40.705Z,23.38
2022-08-25T21:35:23.214Z,23.34
2022-08-25T21:37:53.537Z,23.33
2022-08-25T21:40:22.871Z,23.32
2022-08-25T21:42:51.907Z,23.33
2022-08-25T21:45:21.691Z,23.33
2022-08-25T21:47:50.096Z,23.28
2022-08-25T21:50:20.819Z,23.22
2022-08-25T21:52:48.666Z,23.20
2022-08-25T21:55:23.517Z,23.19
2022-08-25T21:57:51.543Z,23.18
2022-08-25T22:00:21.372Z,23.17
2022-08-25T22:02:50.968Z,23.18
2022-08-25T22:05:18.909Z,23.16
2022-08-25T22:07:46.794Z,23.11
2022-08-25T22:10:17.975Z,23.05
2022-08-25T22:12:47.304Z,23.01
2022-08-25T22:15:18.917Z,22.96
2022-08-25T22:17:48.077Z,22.91
2022-08-25T22:20:18.209Z,22.91
2022-08-25T22:22:46.299Z,22.91
2022-08-25T22:25:14.435Z,22.90
2022-08-25T22:27:42.891Z,22.88
2022-08-25T22:30:11.840Z,22.86
2022-08-25T22:32:39.744Z,22.84
2022-08-25T22:35:08.991Z,22.81
2022-08-25T22:37:38.190Z,22.77
2022-08-25T22:40:08.594Z,22.70
2022-08-25T22:42:36.563Z,22.65
2022-08-25T22:45:04.819Z,22.55
2022-08-25T22:47:32.769Z,22.45
2022-08-25T22:50:00.954Z,22.40
2022-08-25T22:52:33.630Z,22.37
2022-08-25T22:55:03.252Z,22.37
2022-08-25T22:57:31.577Z,22.39
2022-08-25T22:59:59.496Z,22.40
2022-08-25T23:02:30.279Z,22.43
2022-08-25T23:04:58.484Z,22.45
2022-08-25T23:07:29.523Z,22.44
2022-08-25T23:10:03.300Z,22.43
2022-08-25T23:12:32.062Z,22.42
2022-08-25T23:15:00.690Z,22.42
2022-08-25T23:17:31.596Z,22.38
2022-08-25T23:19:59.520Z,22.35
2022-08-25T23:22:27.468Z,22.30
2022-08-25T23:24:56.391Z,22.28
2022-08-25T23:27:25.018Z,22.30
2022-08-25T23:29:52.971Z,22.32
2022-08-25T23:32:20.841Z,22.31
2022-08-25T23:34:48.879Z,22.27
2022-08-25T23:37:18.720Z,22.25
2022-08-25T23:39:49.364Z,22.22
2022-08-25T23:42:19.943Z,22.22
2022-08-25T23:44:48.953Z,22.21
2022-08-25T23:47:18.229Z,22.21
2022-08-25T23:49:48.048Z,22.20
2022-08-25T23:52:17.723Z,22.19
2022-08-25T23:54:46.211Z,22.13
2022-08-25T23:57:15.121Z,22.06
2022-08-25T23:59:43.854Z,22.04
